sensor_id;sensor_type;location;lat;lon;timestamp;P1;durP1;ratioP1;P2;durP2;ratioP2
3000;SDS011;1510;51.072;6.678;2022-08-19T00:00:48;36.80;;;33.80;;
3000;SDS011;1510;51.072;6.678;2022-08-19T00:03:17;45.10;;;41.90;;
3000;SDS011;1510;51.072;6.678;2022-08-19T00:05:43;47.27;;;44.07;;
3000;SDS011;1510;51.072;6.678;2022-08-19T00:08:10;35.80;;;32.53;;
3000;SDS011;1510;51.072;6.678;2022-08-19T00:10:37;55.77;;;51.70;;
3000;SDS011;1510;51.072;6.678;2022-08-19T00:13:04;117.97;;;112.43;;
3000;SDS011;1510;51.072;6.678;2022-08-19T00:15:30;137.73;;;131.30;;
3000;SDS011;1510;51.072;6.678;2022-08-19T00:17:57;135.70;;;129.27;;
3000;SDS011;1510;51.072;6.678;2022-08-19T00:20:25;112.50;;;106.53;;
3000;SDS011;1510;51.072;6.678;2022-08-19T00:22:52;88.77;;;84.03;;
3000;SDS011;1510;51.072;6.678;2022-08-19T00:25:19;70.23;;;66.13;;
3000;SDS011;1510;51.072;6.678;2022-08-19T00:27:46;61.57;;;57.80;;
3000;SDS011;1510;51.072;6.678;2022-08-19T00:30:13;62.60;;;58.90;;
3000;SDS011;1510;51.072;6.678;2022-08-19T00:32:40;53.10;;;49.43;;
3000;SDS011;1510;51.072;6.678;2022-08-19T00:35:07;57.50;;;53.60;;
3000;SDS011;1510;51.072;6.678;2022-08-19T00:37:36;78.17;;;73.87;;
3000;SDS011;1510;51.072;6.678;2022-08-19T00:40:08;112.73;;;107.33;;
3000;SDS011;1510;51.072;6.678;2022-08-19T00:42:36;121.27;;;115.47;;
3000;SDS011;1510;51.072;6.678;2022-08-19T00:45:03;135.87;;;129.77;;
3000;SDS011;1510;51.072;6.678;2022-08-19T00:47:38;117.37;;;111.80;;
3000;SDS011;1510;51.072;6.678;2022-08-19T00:50:05;103.70;;;98.63;;
3000;SDS011;1510;51.072;6.678;2022-08-19T00:52:34;165.57;;;158.67;;
3000;SDS011;1510;51.072;6.678;2022-08-19T00:55:05;220.20;;;211.07;;
3000;SDS011;1510;51.072;6.678;2022-08-19T00:57:36;243.30;;;233.37;;
3000;SDS011;1510;51.072;6.678;2022-08-19T01:00:06;208.40;;;200.40;;
3000;SDS011;1510;51.072;6.678;2022-08-19T01:02:34;286.13;;;274.57;;
3000;SDS011;1510;51.072;6.678;2022-08-19T01:05:03;317.93;;;305.27;;
3000;SDS011;1510;51.072;6.678;2022-08-19T01:07:32;378.53;;;362.77;;
3000;SDS011;1510;51.072;6.678;2022-08-19T01:10:01;400.73;;;383.63;;
3000;SDS011;1510;51.072;6.678;2022-08-19T01:12:30;414.73;;;397.00;;
3000;SDS011;1510;51.072;6.678;2022-08-19T01:14:56;382.93;;;366.50;;
3000;SDS011;1510;51.072;6.678;2022-08-19T01:17:24;350.33;;;335.23;;
3000;SDS011;1510;51.072;6.678;2022-08-19T01:19:51;360.73;;;345.33;;
3000;SDS011;1510;51.072;6.678;2022-08-19T01:22:19;274.60;;;263.73;;
3000;SDS011;1510;51.072;6.678;2022-08-19T01:24:53;320.67;;;308.27;;
3000;SDS011;1510;51.072;6.678;2022-08-19T01:27:19;298.60;;;287.23;;
3000;SDS011;1510;51.072;6.678;2022-08-19T01:29:46;308.17;;;296.27;;
3000;SDS011;1510;51.072;6.678;2022-08-19T01:32:15;448.00;;;429.37;;
3000;SDS011;1510;51.072;6.678;2022-08-19T01:34:42;416.97;;;399.33;;
3000;SDS011;1510;51.072;6.678;2022-08-19T01:37:12;391.23;;;375.13;;
3000;SDS011;1510;51.072;6.678;2022-08-19T01:39:41;348.97;;;335.23;;
3000;SDS011;1510;51.072;6.678;2022-08-19T01:42:09;321.53;;;309.37;;
3000;SDS011;1510;51.072;6.678;2022-08-19T01:44:37;358.70;;;343.63;;
3000;SDS011;1510;51.072;6.678;2022-08-19T01:47:05;369.40;;;353.97;;
3000;SDS011;1510;51.072;6.678;2022-08-19T01:49:34;357.00;;;342.50;;
3000;SDS011;1510;51.072;6.678;2022-08-19T01:52:01;363.00;;;348.00;;
3000;SDS011;1510;51.072;6.678;2022-08-19T01:54:29;382.80;;;365.40;;
3000;SDS011;1510;51.072;6.678;2022-08-19T01:57:00;448.23;;;428.33;;
3000;SDS011;1510;51.072;6.678;2022-08-19T01:59:29;407.40;;;390.20;;
3000;SDS011;1510;51.072;6.678;2022-08-19T02:01:57;397.60;;;380.70;;
3000;SDS011;1510;51.072;6.678;2022-08-19T02:04:24;379.57;;;363.77;;
3000;SDS011;1510;51.072;6.678;2022-08-19T02:06:51;333.00;;;320.20;;
3000;SDS011;1510;51.072;6.678;2022-08-19T02:09:17;480.33;;;460.53;;
3000;SDS011;1510;51.072;6.678;2022-08-19T02:11:44;466.70;;;447.70;;
3000;SDS011;1510;51.072;6.678;2022-08-19T02:14:12;546.93;;;522.17;;
3000;SDS011;1510;51.072;6.678;2022-08-19T02:16:39;642.03;;;611.10;;
3000;SDS011;1510;51.072;6.678;2022-08-19T02:19:06;783.13;;;739.03;;
3000;SDS011;1510;51.072;6.678;2022-08-19T02:21:33;841.53;;;790.83;;
3000;SDS011;1510;51.072;6.678;2022-08-19T02:24:00;804.57;;;756.40;;
3000;SDS011;1510;51.072;6.678;2022-08-19T02:26:27;775.73;;;731.83;;
3000;SDS011;1510;51.072;6.678;2022-08-19T02:28:54;777.33;;;732.47;;
3000;SDS011;1510;51.072;6.678;2022-08-19T02:31:24;815.30;;;768.33;;
3000;SDS011;1510;51.072;6.678;2022-08-19T02:33:53;829.27;;;781.37;;
3000;SDS011;1510;51.072;6.678;2022-08-19T02:36:20;840.70;;;792.00;;
3000;SDS011;1510;51.072;6.678;2022-08-19T02:38:47;851.33;;;800.50;;
3000;SDS011;1510;51.072;6.678;2022-08-19T02:41:14;844.20;;;794.30;;
3000;SDS011;1510;51.072;6.678;2022-08-19T02:43:43;827.70;;;780.00;;
3000;SDS011;1510;51.072;6.678;2022-08-19T02:46:11;848.37;;;798.50;;
3000;SDS011;1510;51.072;6.678;2022-08-19T02:48:40;805.03;;;757.97;;
3000;SDS011;1510;51.072;6.678;2022-08-19T02:51:07;782.27;;;739.20;;
3000;SDS011;1510;51.072;6.678;2022-08-19T02:53:34;847.10;;;797.00;;
3000;SDS011;1510;51.072;6.678;2022-08-19T02:56:00;808.57;;;762.27;;
3000;SDS011;1510;51.072;6.678;2022-08-19T02:58:27;804.90;;;758.10;;
3000;SDS011;1510;51.072;6.678;2022-08-19T03:00:55;820.30;;;772.63;;
3000;SDS011;1510;51.072;6.678;2022-08-19T03:03:22;828.10;;;778.70;;
3000;SDS011;1510;51.072;6.678;2022-08-19T03:05:51;786.33;;;742.40;;
3000;SDS011;1510;51.072;6.678;2022-08-19T03:08:18;750.83;;;709.87;;
3000;SDS011;1510;51.072;6.678;2022-08-19T03:10:45;766.17;;;723.40;;
3000;SDS011;1510;51.072;6.678;2022-08-19T03:13:14;852.50;;;802.73;;
3000;SDS011;1510;51.072;6.678;2022-08-19T03:15:43;846.87;;;797.53;;
3000;SDS011;1510;51.072;6.678;2022-08-19T03:18:10;671.50;;;637.80;;
3000;SDS011;1510;51.072;6.678;2022-08-19T03:20:41;488.93;;;468.03;;
3000;SDS011;1510;51.072;6.678;2022-08-19T03:23:10;471.17;;;450.77;;
3000;SDS011;1510;51.072;6.678;2022-08-19T03:25:37;572.40;;;546.60;;
3000;SDS011;1510;51.072;6.678;2022-08-19T03:28:06;626.73;;;597.50;;
3000;SDS011;1510;51.072;6.678;2022-08-19T03:30:33;581.80;;;555.47;;
3000;SDS011;1510;51.072;6.678;2022-08-19T03:32:59;564.30;;;539.43;;
3000;SDS011;1510;51.072;6.678;2022-08-19T03:35:26;624.17;;;594.87;;
3000;SDS011;1510;51.072;6.678;2022-08-19T03:37:53;835.90;;;788.30;;
3000;SDS011;1510;51.072;6.678;2022-08-19T03:40:22;936.23;;;874.00;;
3000;SDS011;1510;51.072;6.678;2022-08-19T03:42:49;949.00;;;884.10;;
3000;SDS011;1510;51.072;6.678;2022-08-19T03:45:16;951.63;;;885.23;;
3000;SDS011;1510;51.072;6.678;2022-08-19T03:47:43;952.87;;;882.53;;
3000;SDS011;1510;51.072;6.678;2022-08-19T03:50:10;948.73;;;879.43;;
3000;SDS011;1510;51.072;6.678;2022-08-19T03:52:37;955.27;;;884.50;;
3000;SDS011;1510;51.072;6.678;2022-08-19T03:55:04;953.70;;;875.23;;
3000;SDS011;1510;51.072;6.678;2022-08-19T03:57:33;947.90;;;872.67;;
3000;SDS011;1510;51.072;6.678;2022-08-19T04:00:00;950.23;;;872.57;;
3000;SDS011;1510;51.072;6.678;2022-08-19T04:02:29;928.97;;;857.13;;
3000;SDS011;1510;51.072;6.678;2022-08-19T04:04:56;954.20;;;881.40;;
3000;SDS011;1510;51.072;6.678;2022-08-19T04:07:23;961.87;;;885.53;;
3000;SDS011;1510;51.072;6.678;2022-08-19T04:09:49;971.13;;;892.40;;
3000;SDS011;1510;51.072;6.678;2022-08-19T04:12:17;964.83;;;885.63;;
3000;SDS011;1510;51.072;6.678;2022-08-19T04:14:46;973.17;;;890.70;;
3000;SDS011;1510;51.072;6.678;2022-08-19T04:17:13;973.80;;;889.23;;
3000;SDS011;1510;51.072;6.678;2022-08-19T04:19:40;984.20;;;897.87;;
3000;SDS011;1510;51.072;6.678;2022-08-19T04:22:07;973.10;;;884.73;;
3000;SDS011;1510;51.072;6.678;2022-08-19T04:24:36;974.90;;;885.80;;
3000;SDS011;1510;51.072;6.678;2022-08-19T04:27:05;970.83;;;882.77;;
3000;SDS011;1510;51.072;6.678;2022-08-19T04:29:41;983.33;;;893.93;;
3000;SDS011;1510;51.072;6.678;2022-08-19T04:32:09;977.47;;;889.93;;
3000;SDS011;1510;51.072;6.678;2022-08-19T04:34:38;967.00;;;885.10;;
3000;SDS011;1510;51.072;6.678;2022-08-19T04:43:10;928.60;;;858.00;;
3000;SDS011;1510;51.072;6.678;2022-08-19T04:49:20;924.67;;;851.77;;
3000;SDS011;1510;51.072;6.678;2022-08-19T04:51:51;919.10;;;845.20;;
3000;SDS011;1510;51.072;6.678;2022-08-19T04:54:33;919.63;;;845.83;;
3000;SDS011;1510;51.072;6.678;2022-08-19T04:57:00;909.97;;;835.67;;
3000;SDS011;1510;51.072;6.678;2022-08-19T04:59:26;910.83;;;832.27;;
3000;SDS011;1510;51.072;6.678;2022-08-19T05:02:51;916.03;;;833.47;;
3000;SDS011;1510;51.072;6.678;2022-08-19T05:05:21;882.80;;;800.43;;
3000;SDS011;1510;51.072;6.678;2022-08-19T05:08:02;887.90;;;807.27;;
3000;SDS011;1510;51.072;6.678;2022-08-19T05:10:56;888.57;;;811.37;;
3000;SDS011;1510;51.072;6.678;2022-08-19T05:13:34;888.63;;;815.03;;
3000;SDS011;1510;51.072;6.678;2022-08-19T05:16:11;880.13;;;808.73;;
3000;SDS011;1510;51.072;6.678;2022-08-19T05:18:59;862.37;;;796.73;;
3000;SDS011;1510;51.072;6.678;2022-08-19T05:22:16;846.77;;;787.03;;
3000;SDS011;1510;51.072;6.678;2022-08-19T05:25:04;831.10;;;774.40;;
3000;SDS011;1510;51.072;6.678;2022-08-19T05:27:37;827.70;;;772.00;;
3000;SDS011;1510;51.072;6.678;2022-08-19T05:30:04;782.33;;;731.03;;
3000;SDS011;1510;51.072;6.678;2022-08-19T05:32:32;728.90;;;682.53;;
3000;SDS011;1510;51.072;6.678;2022-08-19T05:34:59;648.37;;;610.50;;
3000;SDS011;1510;51.072;6.678;2022-08-19T05:37:25;647.53;;;610.93;;
3000;SDS011;1510;51.072;6.678;2022-08-19T05:39:52;682.63;;;643.23;;
3000;SDS011;1510;51.072;6.678;2022-08-19T05:42:20;685.47;;;645.40;;
3000;SDS011;1510;51.072;6.678;2022-08-19T05:44:50;615.13;;;579.60;;
3000;SDS011;1510;51.072;6.678;2022-08-19T05:47:19;462.70;;;438.00;;
3000;SDS011;1510;51.072;6.678;2022-08-19T05:49:47;439.40;;;417.10;;
3000;SDS011;1510;51.072;6.678;2022-08-19T05:52:15;360.97;;;342.63;;
3000;SDS011;1510;51.072;6.678;2022-08-19T05:54:42;239.03;;;226.07;;
3000;SDS011;1510;51.072;6.678;2022-08-19T05:57:10;244.60;;;231.80;;
3000;SDS011;1510;51.072;6.678;2022-08-19T05:59:39;210.20;;;198.50;;
3000;SDS011;1510;51.072;6.678;2022-08-19T06:02:20;164.13;;;154.10;;
3000;SDS011;1510;51.072;6.678;2022-08-19T06:04:46;162.67;;;152.37;;
3000;SDS011;1510;51.072;6.678;2022-08-19T06:07:17;193.13;;;181.33;;
3000;SDS011;1510;51.072;6.678;2022-08-19T06:09:44;248.73;;;236.40;;
3000;SDS011;1510;51.072;6.678;2022-08-19T06:12:11;257.47;;;245.40;;
3000;SDS011;1510;51.072;6.678;2022-08-19T06:14:38;282.10;;;269.20;;
3000;SDS011;1510;51.072;6.678;2022-08-19T06:17:09;293.00;;;278.03;;
3000;SDS011;1510;51.072;6.678;2022-08-19T06:19:38;306.70;;;292.77;;
3000;SDS011;1510;51.072;6.678;2022-08-19T06:22:16;288.93;;;275.53;;
3000;SDS011;1510;51.072;6.678;2022-08-19T06:24:50;259.10;;;246.63;;
3000;SDS011;1510;51.072;6.678;2022-08-19T06:27:20;273.87;;;260.73;;
3000;SDS011;1510;51.072;6.678;2022-08-19T06:29:54;294.00;;;281.17;;
3000;SDS011;1510;51.072;6.678;2022-08-19T06:32:24;276.03;;;263.77;;
3000;SDS011;1510;51.072;6.678;2022-08-19T06:35:06;293.20;;;278.97;;
3000;SDS011;1510;51.072;6.678;2022-08-19T06:37:35;269.27;;;255.70;;
3000;SDS011;1510;51.072;6.678;2022-08-19T06:40:03;258.23;;;245.63;;
3000;SDS011;1510;51.072;6.678;2022-08-19T06:42:33;239.13;;;226.90;;
3000;SDS011;1510;51.072;6.678;2022-08-19T06:45:07;182.50;;;170.93;;
3000;SDS011;1510;51.072;6.678;2022-08-19T06:47:36;140.30;;;130.97;;
3000;SDS011;1510;51.072;6.678;2022-08-19T06:50:11;149.43;;;139.87;;
3000;SDS011;1510;51.072;6.678;2022-08-19T06:52:37;129.50;;;120.43;;
3000;SDS011;1510;51.072;6.678;2022-08-19T06:55:05;151.10;;;141.70;;
3000;SDS011;1510;51.072;6.678;2022-08-19T06:57:32;99.30;;;91.60;;
3000;SDS011;1510;51.072;6.678;2022-08-19T07:00:00;66.07;;;59.37;;
3000;SDS011;1510;51.072;6.678;2022-08-19T07:02:27;68.57;;;61.27;;
3000;SDS011;1510;51.072;6.678;2022-08-19T07:04:55;75.57;;;67.77;;
3000;SDS011;1510;51.072;6.678;2022-08-19T07:07:23;76.40;;;68.87;;
3000;SDS011;1510;51.072;6.678;2022-08-19T07:09:50;73.37;;;65.97;;
3000;SDS011;1510;51.072;6.678;2022-08-19T07:12:18;74.90;;;67.13;;
3000;SDS011;1510;51.072;6.678;2022-08-19T07:14:44;75.33;;;59.30;;
3000;SDS011;1510;51.072;6.678;2022-08-19T07:17:13;66.83;;;52.17;;
3000;SDS011;1510;51.072;6.678;2022-08-19T07:19:40;63.70;;;48.33;;
3000;SDS011;1510;51.072;6.678;2022-08-19T07:22:09;75.93;;;49.30;;
3000;SDS011;1510;51.072;6.678;2022-08-19T07:24:37;75.30;;;48.80;;
3000;SDS011;1510;51.072;6.678;2022-08-19T07:27:05;74.90;;;52.30;;
3000;SDS011;1510;51.072;6.678;2022-08-19T07:29:33;72.53;;;51.77;;
3000;SDS011;1510;51.072;6.678;2022-08-19T07:32:01;82.37;;;51.40;;
3000;SDS011;1510;51.072;6.678;2022-08-19T07:34:30;93.60;;;64.85;;
3000;SDS011;1510;51.072;6.678;2022-08-19T07:36:59;79.93;;;55.30;;
3000;SDS011;1510;51.072;6.678;2022-08-19T07:39:28;91.97;;;55.87;;
3000;SDS011;1510;51.072;6.678;2022-08-19T07:41:57;85.90;;;53.37;;
3000;SDS011;1510;51.072;6.678;2022-08-19T07:44:26;84.27;;;50.77;;
3000;SDS011;1510;51.072;6.678;2022-08-19T07:46:53;77.53;;;48.33;;
3000;SDS011;1510;51.072;6.678;2022-08-19T07:49:22;72.50;;;47.90;;
3000;SDS011;1510;51.072;6.678;2022-08-19T07:51:50;76.83;;;48.23;;
3000;SDS011;1510;51.072;6.678;2022-08-19T07:54:22;77.97;;;49.67;;
3000;SDS011;1510;51.072;6.678;2022-08-19T07:56:52;83.83;;;49.70;;
3000;SDS011;1510;51.072;6.678;2022-08-19T07:59:19;65.13;;;46.20;;
3000;SDS011;1510;51.072;6.678;2022-08-19T08:01:47;75.13;;;45.90;;
3000;SDS011;1510;51.072;6.678;2022-08-19T08:04:15;68.03;;;44.43;;
3000;SDS011;1510;51.072;6.678;2022-08-19T08:06:59;57.00;;;37.60;;
3000;SDS011;1510;51.072;6.678;2022-08-19T08:09:43;68.00;;;43.23;;
3000;SDS011;1510;51.072;6.678;2022-08-19T08:12:13;60.80;;;37.80;;
3000;SDS011;1510;51.072;6.678;2022-08-19T08:14:59;60.83;;;42.27;;
3000;SDS011;1510;51.072;6.678;2022-08-19T08:17:28;56.83;;;38.27;;
3000;SDS011;1510;51.072;6.678;2022-08-19T08:19:55;57.13;;;39.07;;
3000;SDS011;1510;51.072;6.678;2022-08-19T08:22:23;62.50;;;41.50;;
3000;SDS011;1510;51.072;6.678;2022-08-19T08:25:09;58.03;;;39.43;;
3000;SDS011;1510;51.072;6.678;2022-08-19T08:27:39;54.77;;;40.57;;
3000;SDS011;1510;51.072;6.678;2022-08-19T08:30:08;58.37;;;37.93;;
3000;SDS011;1510;51.072;6.678;2022-08-19T08:32:37;61.27;;;40.73;;
3000;SDS011;1510;51.072;6.678;2022-08-19T08:35:04;54.50;;;36.27;;
3000;SDS011;1510;51.072;6.678;2022-08-19T08:37:32;51.20;;;34.90;;
3000;SDS011;1510;51.072;6.678;2022-08-19T08:40:02;46.07;;;31.60;;
3000;SDS011;1510;51.072;6.678;2022-08-19T08:42:32;46.10;;;34.90;;
3000;SDS011;1510;51.072;6.678;2022-08-19T08:45:06;51.30;;;34.83;;
3000;SDS011;1510;51.072;6.678;2022-08-19T08:47:40;51.93;;;34.37;;
3000;SDS011;1510;51.072;6.678;2022-08-19T08:50:12;49.97;;;35.70;;
3000;SDS011;1510;51.072;6.678;2022-08-19T08:52:43;50.00;;;30.50;;
3000;SDS011;1510;51.072;6.678;2022-08-19T08:55:13;42.13;;;29.67;;
3000;SDS011;1510;51.072;6.678;2022-08-19T08:57:43;39.47;;;27.77;;
3000;SDS011;1510;51.072;6.678;2022-08-19T09:00:23;38.43;;;26.20;;
3000;SDS011;1510;51.072;6.678;2022-08-19T09:02:56;36.97;;;25.97;;
3000;SDS011;1510;51.072;6.678;2022-08-19T09:05:25;35.13;;;26.20;;
3000;SDS011;1510;51.072;6.678;2022-08-19T09:08:00;35.83;;;25.10;;
3000;SDS011;1510;51.072;6.678;2022-08-19T09:10:34;36.90;;;25.20;;
3000;SDS011;1510;51.072;6.678;2022-08-19T09:13:05;34.13;;;23.37;;
3000;SDS011;1510;51.072;6.678;2022-08-19T09:15:51;35.83;;;23.80;;
3000;SDS011;1510;51.072;6.678;2022-08-19T09:18:37;27.20;;;20.30;;
3000;SDS011;1510;51.072;6.678;2022-08-19T09:21:16;30.27;;;18.30;;
3000;SDS011;1510;51.072;6.678;2022-08-19T09:23:59;21.47;;;17.00;;
3000;SDS011;1510;51.072;6.678;2022-08-19T09:26:26;28.30;;;16.30;;
3000;SDS011;1510;51.072;6.678;2022-08-19T09:28:54;23.90;;;15.87;;
3000;SDS011;1510;51.072;6.678;2022-08-19T09:31:25;28.10;;;17.67;;
3000;SDS011;1510;51.072;6.678;2022-08-19T09:33:53;26.23;;;16.90;;
3000;SDS011;1510;51.072;6.678;2022-08-19T09:36:29;20.80;;;15.33;;
3000;SDS011;1510;51.072;6.678;2022-08-19T09:38:58;19.10;;;13.63;;
3000;SDS011;1510;51.072;6.678;2022-08-19T09:41:26;18.40;;;16.40;;
3000;SDS011;1510;51.072;6.678;2022-08-19T09:43:56;24.13;;;14.37;;
3000;SDS011;1510;51.072;6.678;2022-08-19T09:46:33;25.07;;;17.97;;
3000;SDS011;1510;51.072;6.678;2022-08-19T09:49:03;22.50;;;16.80;;
3000;SDS011;1510;51.072;6.678;2022-08-19T09:51:32;25.83;;;18.73;;
3000;SDS011;1510;51.072;6.678;2022-08-19T09:54:02;24.50;;;16.40;;
3000;SDS011;1510;51.072;6.678;2022-08-19T09:56:32;28.83;;;20.30;;
3000;SDS011;1510;51.072;6.678;2022-08-19T09:58:59;23.20;;;16.93;;
3000;SDS011;1510;51.072;6.678;2022-08-19T10:01:27;25.47;;;19.57;;
3000;SDS011;1510;51.072;6.678;2022-08-19T10:07:21;26.80;;;21.10;;
3000;SDS011;1510;51.072;6.678;2022-08-19T10:10:10;28.30;;;18.30;;
3000;SDS011;1510;51.072;6.678;2022-08-19T10:16:18;30.03;;;18.80;;
3000;SDS011;1510;51.072;6.678;2022-08-19T10:23:22;26.03;;;18.17;;
3000;SDS011;1510;51.072;6.678;2022-08-19T10:30:31;28.57;;;17.93;;
3000;SDS011;1510;51.072;6.678;2022-08-19T10:33:31;30.00;;;17.60;;
3000;SDS011;1510;51.072;6.678;2022-08-19T10:50:24;19.90;;;15.80;;
3000;SDS011;1510;51.072;6.678;2022-08-19T10:51:34;29.63;;;16.50;;
3000;SDS011;1510;51.072;6.678;2022-08-19T10:55:34;17.93;;;12.57;;
3000;SDS011;1510;51.072;6.678;2022-08-19T10:58:11;19.10;;;11.10;;
3000;SDS011;1510;51.072;6.678;2022-08-19T11:01:09;20.70;;;11.30;;
3000;SDS011;1510;51.072;6.678;2022-08-19T11:05:17;19.00;;;12.97;;
3000;SDS011;1510;51.072;6.678;2022-08-19T11:07:26;23.10;;;11.07;;
3000;SDS011;1510;51.072;6.678;2022-08-19T11:09:53;18.87;;;12.17;;
3000;SDS011;1510;51.072;6.678;2022-08-19T11:12:20;19.80;;;12.50;;
3000;SDS011;1510;51.072;6.678;2022-08-19T11:14:47;13.20;;;11.20;;
3000;SDS011;1510;51.072;6.678;2022-08-19T11:17:16;16.73;;;11.60;;
3000;SDS011;1510;51.072;6.678;2022-08-19T11:19:43;16.60;;;12.00;;
3000;SDS011;1510;51.072;6.678;2022-08-19T11:22:09;18.73;;;11.70;;
3000;SDS011;1510;51.072;6.678;2022-08-19T11:24:36;17.13;;;11.70;;
3000;SDS011;1510;51.072;6.678;2022-08-19T11:27:04;14.20;;;11.97;;
3000;SDS011;1510;51.072;6.678;2022-08-19T11:29:34;18.77;;;11.40;;
3000;SDS011;1510;51.072;6.678;2022-08-19T11:32:03;14.60;;;12.23;;
3000;SDS011;1510;51.072;6.678;2022-08-19T11:34:32;17.80;;;11.60;;
3000;SDS011;1510;51.072;6.678;2022-08-19T11:37:00;22.07;;;11.67;;
3000;SDS011;1510;51.072;6.678;2022-08-19T11:39:29;14.93;;;10.80;;
3000;SDS011;1510;51.072;6.678;2022-08-19T11:41:57;16.33;;;9.90;;
3000;SDS011;1510;51.072;6.678;2022-08-19T11:44:25;16.37;;;12.00;;
3000;SDS011;1510;51.072;6.678;2022-08-19T11:46:53;15.27;;;12.77;;
3000;SDS011;1510;51.072;6.678;2022-08-19T11:49:21;17.20;;;12.33;;
3000;SDS011;1510;51.072;6.678;2022-08-19T11:51:49;17.73;;;11.97;;
3000;SDS011;1510;51.072;6.678;2022-08-19T11:54:16;18.53;;;12.60;;
3000;SDS011;1510;51.072;6.678;2022-08-19T11:56:43;16.07;;;11.80;;
3000;SDS011;1510;51.072;6.678;2022-08-19T11:59:12;14.60;;;11.60;;
3000;SDS011;1510;51.072;6.678;2022-08-19T12:01:39;13.80;;;10.50;;
3000;SDS011;1510;51.072;6.678;2022-08-19T12:04:07;16.50;;;11.43;;
3000;SDS011;1510;51.072;6.678;2022-08-19T12:06:36;18.70;;;10.33;;
3000;SDS011;1510;51.072;6.678;2022-08-19T12:09:06;17.00;;;11.53;;
3000;SDS011;1510;51.072;6.678;2022-08-19T12:11:37;19.03;;;13.30;;
3000;SDS011;1510;51.072;6.678;2022-08-19T12:14:04;17.53;;;12.47;;
3000;SDS011;1510;51.072;6.678;2022-08-19T12:16:31;14.90;;;10.33;;
3000;SDS011;1510;51.072;6.678;2022-08-19T12:18:58;16.17;;;10.50;;
3000;SDS011;1510;51.072;6.678;2022-08-19T12:21:28;16.50;;;9.17;;
3000;SDS011;1510;51.072;6.678;2022-08-19T12:23:56;14.27;;;8.77;;
3000;SDS011;1510;51.072;6.678;2022-08-19T12:26:26;11.53;;;7.87;;
3000;SDS011;1510;51.072;6.678;2022-08-19T12:28:53;10.30;;;7.73;;
3000;SDS011;1510;51.072;6.678;2022-08-19T12:31:21;13.27;;;8.10;;
3000;SDS011;1510;51.072;6.678;2022-08-19T12:33:47;12.27;;;7.50;;
3000;SDS011;1510;51.072;6.678;2022-08-19T12:36:15;12.37;;;8.97;;
3000;SDS011;1510;51.072;6.678;2022-08-19T12:38:42;13.50;;;8.87;;
3000;SDS011;1510;51.072;6.678;2022-08-19T12:41:12;16.73;;;9.20;;
3000;SDS011;1510;51.072;6.678;2022-08-19T12:43:45;15.77;;;9.00;;
3000;SDS011;1510;51.072;6.678;2022-08-19T12:46:14;18.67;;;8.97;;
3000;SDS011;1510;51.072;6.678;2022-08-19T12:48:41;14.30;;;6.53;;
3000;SDS011;1510;51.072;6.678;2022-08-19T12:51:11;11.20;;;8.00;;
3000;SDS011;1510;51.072;6.678;2022-08-19T12:53:39;13.77;;;8.60;;
3000;SDS011;1510;51.072;6.678;2022-08-19T12:56:06;10.70;;;6.93;;
3000;SDS011;1510;51.072;6.678;2022-08-19T12:58:34;15.67;;;8.33;;
3000;SDS011;1510;51.072;6.678;2022-08-19T13:01:07;15.33;;;7.97;;
3000;SDS011;1510;51.072;6.678;2022-08-19T13:03:36;9.67;;;7.10;;
3000;SDS011;1510;51.072;6.678;2022-08-19T13:06:03;10.90;;;6.27;;
3000;SDS011;1510;51.072;6.678;2022-08-19T13:08:30;12.00;;;7.13;;
3000;SDS011;1510;51.072;6.678;2022-08-19T13:10:57;17.10;;;9.17;;
3000;SDS011;1510;51.072;6.678;2022-08-19T13:13:24;13.77;;;7.50;;
3000;SDS011;1510;51.072;6.678;2022-08-19T13:15:51;10.23;;;6.93;;
3000;SDS011;1510;51.072;6.678;2022-08-19T13:18:20;13.50;;;7.23;;
3000;SDS011;1510;51.072;6.678;2022-08-19T13:20:46;10.50;;;7.70;;
3000;SDS011;1510;51.072;6.678;2022-08-19T13:23:13;9.83;;;6.70;;
3000;SDS011;1510;51.072;6.678;2022-08-19T13:25:40;9.13;;;5.50;;
3000;SDS011;1510;51.072;6.678;2022-08-19T13:31:34;9.73;;;5.70;;
3000;SDS011;1510;51.072;6.678;2022-08-19T13:34:27;13.60;;;5.40;;
3000;SDS011;1510;51.072;6.678;2022-08-19T13:36:56;11.77;;;6.07;;
3000;SDS011;1510;51.072;6.678;2022-08-19T13:39:23;8.17;;;5.37;;
3000;SDS011;1510;51.072;6.678;2022-08-19T13:41:50;12.80;;;7.30;;
3000;SDS011;1510;51.072;6.678;2022-08-19T13:44:17;11.90;;;6.57;;
3000;SDS011;1510;51.072;6.678;2022-08-19T13:46:45;7.30;;;5.07;;
3000;SDS011;1510;51.072;6.678;2022-08-19T13:49:13;7.23;;;4.83;;
3000;SDS011;1510;51.072;6.678;2022-08-19T13:51:43;12.17;;;6.70;;
3000;SDS011;1510;51.072;6.678;2022-08-19T13:54:10;12.57;;;7.07;;
3000;SDS011;1510;51.072;6.678;2022-08-19T13:56:39;9.57;;;5.40;;
3000;SDS011;1510;51.072;6.678;2022-08-19T13:59:07;9.77;;;4.93;;
3000;SDS011;1510;51.072;6.678;2022-08-19T14:01:34;15.23;;;5.47;;
3000;SDS011;1510;51.072;6.678;2022-08-19T14:04:00;10.33;;;5.50;;
3000;SDS011;1510;51.072;6.678;2022-08-19T14:06:27;9.20;;;4.93;;
3000;SDS011;1510;51.072;6.678;2022-08-19T14:08:55;8.70;;;3.67;;
3000;SDS011;1510;51.072;6.678;2022-08-19T14:11:22;6.53;;;3.60;;
3000;SDS011;1510;51.072;6.678;2022-08-19T14:13:54;7.67;;;4.00;;
3000;SDS011;1510;51.072;6.678;2022-08-19T14:16:23;7.50;;;3.40;;
3000;SDS011;1510;51.072;6.678;2022-08-19T14:18:50;9.10;;;3.67;;
3000;SDS011;1510;51.072;6.678;2022-08-19T14:21:19;7.17;;;3.90;;
3000;SDS011;1510;51.072;6.678;2022-08-19T14:23:58;7.37;;;3.57;;
3000;SDS011;1510;51.072;6.678;2022-08-19T14:26:26;7.43;;;3.80;;
3000;SDS011;1510;51.072;6.678;2022-08-19T14:29:00;13.20;;;4.23;;
3000;SDS011;1510;51.072;6.678;2022-08-19T14:31:41;9.33;;;3.33;;
3000;SDS011;1510;51.072;6.678;2022-08-19T14:34:08;8.03;;;3.90;;
3000;SDS011;1510;51.072;6.678;2022-08-19T14:36:35;6.60;;;3.03;;
3000;SDS011;1510;51.072;6.678;2022-08-19T14:39:04;8.10;;;3.43;;
3000;SDS011;1510;51.072;6.678;2022-08-19T14:41:31;10.30;;;2.70;;
3000;SDS011;1510;51.072;6.678;2022-08-19T14:43:58;6.60;;;3.50;;
3000;SDS011;1510;51.072;6.678;2022-08-19T14:46:26;6.33;;;2.63;;
3000;SDS011;1510;51.072;6.678;2022-08-19T14:48:54;5.70;;;3.23;;
3000;SDS011;1510;51.072;6.678;2022-08-19T14:51:22;6.43;;;3.20;;
3000;SDS011;1510;51.072;6.678;2022-08-19T14:53:51;6.70;;;3.40;;
3000;SDS011;1510;51.072;6.678;2022-08-19T14:56:20;8.03;;;3.20;;
3000;SDS011;1510;51.072;6.678;2022-08-19T14:58:50;6.93;;;3.57;;
3000;SDS011;1510;51.072;6.678;2022-08-19T15:01:17;7.73;;;3.60;;
3000;SDS011;1510;51.072;6.678;2022-08-19T15:03:46;8.13;;;3.70;;
3000;SDS011;1510;51.072;6.678;2022-08-19T15:06:14;12.03;;;4.17;;
3000;SDS011;1510;51.072;6.678;2022-08-19T15:08:41;7.60;;;3.87;;
3000;SDS011;1510;51.072;6.678;2022-08-19T15:11:19;7.57;;;4.20;;
3000;SDS011;1510;51.072;6.678;2022-08-19T15:13:53;8.87;;;4.07;;
3000;SDS011;1510;51.072;6.678;2022-08-19T15:16:25;8.10;;;3.63;;
3000;SDS011;1510;51.072;6.678;2022-08-19T15:18:54;8.63;;;3.30;;
3000;SDS011;1510;51.072;6.678;2022-08-19T15:21:22;9.83;;;3.53;;
3000;SDS011;1510;51.072;6.678;2022-08-19T15:23:50;11.77;;;3.67;;
3000;SDS011;1510;51.072;6.678;2022-08-19T15:26:17;9.97;;;3.33;;
3000;SDS011;1510;51.072;6.678;2022-08-19T15:28:50;5.93;;;2.67;;
3000;SDS011;1510;51.072;6.678;2022-08-19T15:31:18;7.23;;;2.90;;
3000;SDS011;1510;51.072;6.678;2022-08-19T15:33:47;5.40;;;2.73;;
3000;SDS011;1510;51.072;6.678;2022-08-19T15:36:14;7.53;;;3.63;;
3000;SDS011;1510;51.072;6.678;2022-08-19T15:38:41;6.93;;;3.43;;
3000;SDS011;1510;51.072;6.678;2022-08-19T15:41:15;8.07;;;3.70;;